Terminal Aerodrome Forecast
Issued by NWS

Home | Current Version | Previous Version | Text Only | Print | Product List | Glossary On
Versions: 1 2 3 4 5 6 7 8 9 10 11 12 13 14 15 16 17 18
000
FTUS41 KBOX 231133
TAFACK
TAF
KACK 231133Z 2312/2412 VRB03KT 4SM BR OVC003
     FM231600 26010KT P6SM BKN035
     FM231900 25008KT P6SM FEW200
     FM240200 29007KT 4SM BR BKN020
     FM240400 32010KT 2SM BR BKN020
     FM240600 01010KT P6SM SCT060
     FM240800 04009KT 5SM BR SCT050
     FM241000 05008KT P6SM SCT080=

USA.gov is the U.S. government's official web portal to all federal, state and local government web resources and services.